sensor_id;sensor_type;location;lat;lon;timestamp;temperature;humidity
32706;DHT22;19094;50.972;3.538;2023-07-13T00:02:15;23.90;52.10
32706;DHT22;19094;50.972;3.538;2023-07-13T00:04:41;23.90;52.00
32706;DHT22;19094;50.972;3.538;2023-07-13T00:07:07;23.90;52.10
32706;DHT22;19094;50.972;3.538;2023-07-13T00:09:34;23.90;52.10
32706;DHT22;19094;50.972;3.538;2023-07-13T00:11:59;23.90;52.00
32706;DHT22;19094;50.972;3.538;2023-07-13T00:14:27;23.80;52.10
32706;DHT22;19094;50.972;3.538;2023-07-13T00:16:53;23.80;52.10
32706;DHT22;19094;50.972;3.538;2023-07-13T00:19:19;23.80;52.20
32706;DHT22;19094;50.972;3.538;2023-07-13T00:21:44;23.80;52.20
32706;DHT22;19094;50.972;3.538;2023-07-13T00:24:13;23.80;52.30
32706;DHT22;19094;50.972;3.538;2023-07-13T00:26:39;23.80;52.20
32706;DHT22;19094;50.972;3.538;2023-07-13T00:29:05;23.80;52.30
32706;DHT22;19094;50.972;3.538;2023-07-13T00:31:34;23.80;52.20
32706;DHT22;19094;50.972;3.538;2023-07-13T00:34:01;23.80;52.30
32706;DHT22;19094;50.972;3.538;2023-07-13T00:36:26;23.80;52.40
32706;DHT22;19094;50.972;3.538;2023-07-13T00:38:52;23.80;52.50
32706;DHT22;19094;50.972;3.538;2023-07-13T00:41:18;23.70;52.50
32706;DHT22;19094;50.972;3.538;2023-07-13T00:43:44;23.70;52.50
32706;DHT22;19094;50.972;3.538;2023-07-13T00:46:16;23.70;52.70
32706;DHT22;19094;50.972;3.538;2023-07-13T00:48:43;23.70;52.70
32706;DHT22;19094;50.972;3.538;2023-07-13T00:51:10;23.60;52.80
32706;DHT22;19094;50.972;3.538;2023-07-13T00:53:36;23.60;52.90
32706;DHT22;19094;50.972;3.538;2023-07-13T00:56:03;23.60;53.00
32706;DHT22;19094;50.972;3.538;2023-07-13T00:58:29;23.60;52.90
32706;DHT22;19094;50.972;3.538;2023-07-13T01:00:55;23.60;53.00
32706;DHT22;19094;50.972;3.538;2023-07-13T01:03:21;23.60;53.00
32706;DHT22;19094;50.972;3.538;2023-07-13T01:05:48;23.60;53.00
32706;DHT22;19094;50.972;3.538;2023-07-13T01:08:15;23.60;53.00
32706;DHT22;19094;50.972;3.538;2023-07-13T01:10:41;23.60;53.00
32706;DHT22;19094;50.972;3.538;2023-07-13T01:13:09;23.60;53.10
32706;DHT22;19094;50.972;3.538;2023-07-13T01:15:41;23.60;53.00
32706;DHT22;19094;50.972;3.538;2023-07-13T01:18:15;23.50;53.20
32706;DHT22;19094;50.972;3.538;2023-07-13T01:20:49;23.50;53.40
32706;DHT22;19094;50.972;3.538;2023-07-13T01:23:15;23.50;53.40
32706;DHT22;19094;50.972;3.538;2023-07-13T01:25:41;23.40;53.40
32706;DHT22;19094;50.972;3.538;2023-07-13T01:28:07;23.40;53.50
32706;DHT22;19094;50.972;3.538;2023-07-13T01:30:37;23.50;53.70
32706;DHT22;19094;50.972;3.538;2023-07-13T01:33:06;23.40;53.50
32706;DHT22;19094;50.972;3.538;2023-07-13T01:35:32;23.40;53.50
32706;DHT22;19094;50.972;3.538;2023-07-13T01:37:58;23.40;53.60
32706;DHT22;19094;50.972;3.538;2023-07-13T01:40:26;23.40;53.80
32706;DHT22;19094;50.972;3.538;2023-07-13T01:42:52;23.40;53.70
32706;DHT22;19094;50.972;3.538;2023-07-13T01:45:18;23.40;53.70
32706;DHT22;19094;50.972;3.538;2023-07-13T01:47:43;23.40;53.90
32706;DHT22;19094;50.972;3.538;2023-07-13T01:50:09;23.30;53.90
32706;DHT22;19094;50.972;3.538;2023-07-13T01:52:35;23.20;54.00
32706;DHT22;19094;50.972;3.538;2023-07-13T01:55:01;23.30;54.10
32706;DHT22;19094;50.972;3.538;2023-07-13T01:57:27;23.30;54.10
32706;DHT22;19094;50.972;3.538;2023-07-13T01:59:53;23.30;54.10
32706;DHT22;19094;50.972;3.538;2023-07-13T02:02:19;23.20;54.20
32706;DHT22;19094;50.972;3.538;2023-07-13T02:04:45;23.20;54.40
32706;DHT22;19094;50.972;3.538;2023-07-13T02:07:10;23.20;54.40
32706;DHT22;19094;50.972;3.538;2023-07-13T02:09:36;23.10;54.30
32706;DHT22;19094;50.972;3.538;2023-07-13T02:12:02;23.10;54.50
32706;DHT22;19094;50.972;3.538;2023-07-13T02:14:28;23.10;54.50
32706;DHT22;19094;50.972;3.538;2023-07-13T02:16:54;23.10;54.60
32706;DHT22;19094;50.972;3.538;2023-07-13T02:19:20;23.00;54.60
32706;DHT22;19094;50.972;3.538;2023-07-13T02:21:45;23.00;54.60
32706;DHT22;19094;50.972;3.538;2023-07-13T02:24:11;23.00;54.90
32706;DHT22;19094;50.972;3.538;2023-07-13T02:26:45;23.00;54.70
32706;DHT22;19094;50.972;3.538;2023-07-13T02:29:11;23.00;54.90
32706;DHT22;19094;50.972;3.538;2023-07-13T02:31:37;22.90;54.90
32706;DHT22;19094;50.972;3.538;2023-07-13T02:34:03;22.90;55.00
32706;DHT22;19094;50.972;3.538;2023-07-13T02:36:30;22.90;55.20
32706;DHT22;19094;50.972;3.538;2023-07-13T02:38:55;22.90;55.10
32706;DHT22;19094;50.972;3.538;2023-07-13T02:41:21;22.80;55.20
32706;DHT22;19094;50.972;3.538;2023-07-13T02:43:48;22.80;55.30
32706;DHT22;19094;50.972;3.538;2023-07-13T02:46:14;22.80;55.40
32706;DHT22;19094;50.972;3.538;2023-07-13T02:48:40;22.90;55.40
32706;DHT22;19094;50.972;3.538;2023-07-13T02:51:05;22.90;55.50
32706;DHT22;19094;50.972;3.538;2023-07-13T02:53:31;22.90;55.40
32706;DHT22;19094;50.972;3.538;2023-07-13T02:55:57;22.80;55.20
32706;DHT22;19094;50.972;3.538;2023-07-13T02:58:23;22.80;55.40
32706;DHT22;19094;50.972;3.538;2023-07-13T03:00:48;22.80;55.50
32706;DHT22;19094;50.972;3.538;2023-07-13T03:03:15;22.80;55.60
32706;DHT22;19094;50.972;3.538;2023-07-13T03:05:43;22.70;55.50
32706;DHT22;19094;50.972;3.538;2023-07-13T03:08:10;22.70;55.60
32706;DHT22;19094;50.972;3.538;2023-07-13T03:10:36;22.70;55.70
32706;DHT22;19094;50.972;3.538;2023-07-13T03:13:03;22.70;55.70
32706;DHT22;19094;50.972;3.538;2023-07-13T03:15:29;22.70;55.60
32706;DHT22;19094;50.972;3.538;2023-07-13T03:17:55;22.70;55.80
32706;DHT22;19094;50.972;3.538;2023-07-13T03:20:20;22.70;55.90
32706;DHT22;19094;50.972;3.538;2023-07-13T03:22:46;22.60;56.00
32706;DHT22;19094;50.972;3.538;2023-07-13T03:25:12;22.60;56.00
32706;DHT22;19094;50.972;3.538;2023-07-13T03:27:38;22.60;56.00
32706;DHT22;19094;50.972;3.538;2023-07-13T03:30:07;22.60;56.00
32706;DHT22;19094;50.972;3.538;2023-07-13T03:32:33;22.60;56.10
32706;DHT22;19094;50.972;3.538;2023-07-13T03:34:58;22.60;56.00
32706;DHT22;19094;50.972;3.538;2023-07-13T03:37:24;22.60;56.20
32706;DHT22;19094;50.972;3.538;2023-07-13T03:39:50;22.60;56.20
32706;DHT22;19094;50.972;3.538;2023-07-13T03:42:16;22.60;56.20
32706;DHT22;19094;50.972;3.538;2023-07-13T03:44:42;22.60;56.30
32706;DHT22;19094;50.972;3.538;2023-07-13T03:47:11;22.60;56.40
32706;DHT22;19094;50.972;3.538;2023-07-13T03:49:37;22.60;56.30
32706;DHT22;19094;50.972;3.538;2023-07-13T03:52:03;22.50;56.50
32706;DHT22;19094;50.972;3.538;2023-07-13T03:54:29;22.50;56.40
32706;DHT22;19094;50.972;3.538;2023-07-13T03:56:55;22.50;56.50
32706;DHT22;19094;50.972;3.538;2023-07-13T03:59:20;22.50;56.50
32706;DHT22;19094;50.972;3.538;2023-07-13T04:01:46;22.50;56.50
32706;DHT22;19094;50.972;3.538;2023-07-13T04:04:12;22.50;56.50
32706;DHT22;19094;50.972;3.538;2023-07-13T04:06:38;22.50;56.60
32706;DHT22;19094;50.972;3.538;2023-07-13T04:09:04;22.40;56.60
32706;DHT22;19094;50.972;3.538;2023-07-13T04:11:34;22.40;56.80
32706;DHT22;19094;50.972;3.538;2023-07-13T04:14:01;22.30;56.90
32706;DHT22;19094;50.972;3.538;2023-07-13T04:16:27;22.30;57.10
32706;DHT22;19094;50.972;3.538;2023-07-13T04:18:54;22.30;57.00
32706;DHT22;19094;50.972;3.538;2023-07-13T04:21:24;22.30;56.70
32706;DHT22;19094;50.972;3.538;2023-07-13T04:23:50;22.40;57.00
32706;DHT22;19094;50.972;3.538;2023-07-13T04:26:16;22.30;57.10
32706;DHT22;19094;50.972;3.538;2023-07-13T04:28:41;22.30;57.70
32706;DHT22;19094;50.972;3.538;2023-07-13T04:31:07;22.30;57.10
32706;DHT22;19094;50.972;3.538;2023-07-13T04:33:33;22.40;57.10
32706;DHT22;19094;50.972;3.538;2023-07-13T04:35:59;22.30;57.10
32706;DHT22;19094;50.972;3.538;2023-07-13T04:38:30;22.30;57.20
32706;DHT22;19094;50.972;3.538;2023-07-13T04:40:57;22.30;57.20
32706;DHT22;19094;50.972;3.538;2023-07-13T04:43:23;22.30;57.30
32706;DHT22;19094;50.972;3.538;2023-07-13T04:45:50;22.30;57.20
32706;DHT22;19094;50.972;3.538;2023-07-13T04:48:16;22.30;57.20
32706;DHT22;19094;50.972;3.538;2023-07-13T04:50:42;22.30;57.30
32706;DHT22;19094;50.972;3.538;2023-07-13T04:53:09;22.30;57.40
32706;DHT22;19094;50.972;3.538;2023-07-13T04:55:36;22.30;57.50
32706;DHT22;19094;50.972;3.538;2023-07-13T04:58:01;22.30;57.50
32706;DHT22;19094;50.972;3.538;2023-07-13T05:00:29;22.30;57.40
32706;DHT22;19094;50.972;3.538;2023-07-13T05:02:58;22.30;57.40
32706;DHT22;19094;50.972;3.538;2023-07-13T05:05:25;22.30;57.40
32706;DHT22;19094;50.972;3.538;2023-07-13T05:07:51;22.40;57.30
32706;DHT22;19094;50.972;3.538;2023-07-13T05:10:17;22.30;57.30
32706;DHT22;19094;50.972;3.538;2023-07-13T05:12:43;22.30;57.40
32706;DHT22;19094;50.972;3.538;2023-07-13T05:15:09;22.40;57.30
32706;DHT22;19094;50.972;3.538;2023-07-13T05:17:35;22.30;57.30
32706;DHT22;19094;50.972;3.538;2023-07-13T05:20:01;22.30;57.40
32706;DHT22;19094;50.972;3.538;2023-07-13T05:22:26;22.30;57.40
32706;DHT22;19094;50.972;3.538;2023-07-13T05:24:52;22.40;57.50
32706;DHT22;19094;50.972;3.538;2023-07-13T05:27:18;22.30;57.50
32706;DHT22;19094;50.972;3.538;2023-07-13T05:29:43;22.40;57.40
32706;DHT22;19094;50.972;3.538;2023-07-13T05:32:09;22.30;57.50
32706;DHT22;19094;50.972;3.538;2023-07-13T05:34:35;22.30;57.60
32706;DHT22;19094;50.972;3.538;2023-07-13T05:37:01;22.40;57.60
32706;DHT22;19094;50.972;3.538;2023-07-13T05:39:26;22.30;57.80
32706;DHT22;19094;50.972;3.538;2023-07-13T05:41:53;22.40;57.60
32706;DHT22;19094;50.972;3.538;2023-07-13T05:44:18;22.30;57.50
32706;DHT22;19094;50.972;3.538;2023-07-13T05:46:44;22.30;57.60
32706;DHT22;19094;50.972;3.538;2023-07-13T05:49:10;22.40;57.80
32706;DHT22;19094;50.972;3.538;2023-07-13T05:51:36;22.30;57.80
32706;DHT22;19094;50.972;3.538;2023-07-13T05:54:02;22.30;57.70
32706;DHT22;19094;50.972;3.538;2023-07-13T05:56:27;22.30;57.80
32706;DHT22;19094;50.972;3.538;2023-07-13T05:58:53;22.30;57.80
32706;DHT22;19094;50.972;3.538;2023-07-13T06:01:19;22.30;57.80
32706;DHT22;19094;50.972;3.538;2023-07-13T06:03:46;22.30;57.70
32706;DHT22;19094;50.972;3.538;2023-07-13T06:06:13;22.40;57.70
32706;DHT22;19094;50.972;3.538;2023-07-13T06:08:38;22.40;57.70
32706;DHT22;19094;50.972;3.538;2023-07-13T06:13:37;22.40;57.80
32706;DHT22;19094;50.972;3.538;2023-07-13T06:16:03;22.30;57.80
32706;DHT22;19094;50.972;3.538;2023-07-13T06:18:36;22.40;57.80
32706;DHT22;19094;50.972;3.538;2023-07-13T06:21:19;22.30;58.50
32706;DHT22;19094;50.972;3.538;2023-07-13T06:23:46;22.30;57.90
32706;DHT22;19094;50.972;3.538;2023-07-13T06:26:17;22.40;57.90
32706;DHT22;19094;50.972;3.538;2023-07-13T06:28:43;22.40;57.80
32706;DHT22;19094;50.972;3.538;2023-07-13T06:31:11;22.40;57.80
32706;DHT22;19094;50.972;3.538;2023-07-13T06:33:37;22.40;57.80
32706;DHT22;19094;50.972;3.538;2023-07-13T06:36:04;22.50;57.80
32706;DHT22;19094;50.972;3.538;2023-07-13T06:38:30;22.50;57.50
32706;DHT22;19094;50.972;3.538;2023-07-13T06:40:56;22.50;57.30
32706;DHT22;19094;50.972;3.538;2023-07-13T06:43:22;22.50;57.80
32706;DHT22;19094;50.972;3.538;2023-07-13T06:45:48;22.50;57.80
32706;DHT22;19094;50.972;3.538;2023-07-13T06:48:19;22.50;57.70
32706;DHT22;19094;50.972;3.538;2023-07-13T06:50:48;22.50;57.80
32706;DHT22;19094;50.972;3.538;2023-07-13T06:53:15;22.50;57.80
32706;DHT22;19094;50.972;3.538;2023-07-13T06:55:43;22.50;57.70
32706;DHT22;19094;50.972;3.538;2023-07-13T06:58:09;22.50;57.70
32706;DHT22;19094;50.972;3.538;2023-07-13T07:00:34;22.60;57.50
32706;DHT22;19094;50.972;3.538;2023-07-13T07:03:00;22.60;57.50
32706;DHT22;19094;50.972;3.538;2023-07-13T07:05:26;22.60;57.50
32706;DHT22;19094;50.972;3.538;2023-07-13T07:07:53;22.60;57.50
32706;DHT22;19094;50.972;3.538;2023-07-13T07:10:20;22.60;57.40
32706;DHT22;19094;50.972;3.538;2023-07-13T07:12:46;22.70;57.30
32706;DHT22;19094;50.972;3.538;2023-07-13T07:15:12;22.70;57.20
32706;DHT22;19094;50.972;3.538;2023-07-13T07:17:38;22.70;57.30
32706;DHT22;19094;50.972;3.538;2023-07-13T07:20:04;22.70;57.00
32706;DHT22;19094;50.972;3.538;2023-07-13T07:22:31;22.80;56.90
32706;DHT22;19094;50.972;3.538;2023-07-13T07:24:57;22.80;57.00
32706;DHT22;19094;50.972;3.538;2023-07-13T07:27:23;22.80;56.90
32706;DHT22;19094;50.972;3.538;2023-07-13T07:29:50;22.80;56.90
32706;DHT22;19094;50.972;3.538;2023-07-13T07:32:15;22.70;56.70
32706;DHT22;19094;50.972;3.538;2023-07-13T07:34:41;22.80;56.90
32706;DHT22;19094;50.972;3.538;2023-07-13T07:37:11;22.80;56.90
32706;DHT22;19094;50.972;3.538;2023-07-13T07:39:37;22.70;56.80
32706;DHT22;19094;50.972;3.538;2023-07-13T07:42:03;22.70;56.80
32706;DHT22;19094;50.972;3.538;2023-07-13T07:44:31;22.80;56.80
32706;DHT22;19094;50.972;3.538;2023-07-13T07:46:57;22.80;56.80
32706;DHT22;19094;50.972;3.538;2023-07-13T07:49:23;22.80;56.80
32706;DHT22;19094;50.972;3.538;2023-07-13T07:51:49;22.80;56.70
32706;DHT22;19094;50.972;3.538;2023-07-13T07:54:15;22.90;57.10
32706;DHT22;19094;50.972;3.538;2023-07-13T07:56:41;23.00;56.40
32706;DHT22;19094;50.972;3.538;2023-07-13T07:59:07;23.00;56.10
32706;DHT22;19094;50.972;3.538;2023-07-13T08:01:32;23.00;56.30
32706;DHT22;19094;50.972;3.538;2023-07-13T08:03:58;23.10;56.40
32706;DHT22;19094;50.972;3.538;2023-07-13T08:06:24;23.10;56.00
32706;DHT22;19094;50.972;3.538;2023-07-13T08:08:50;23.10;56.00
32706;DHT22;19094;50.972;3.538;2023-07-13T08:11:17;23.10;56.00
32706;DHT22;19094;50.972;3.538;2023-07-13T08:13:43;23.10;56.00
32706;DHT22;19094;50.972;3.538;2023-07-13T08:16:08;23.20;56.20
32706;DHT22;19094;50.972;3.538;2023-07-13T08:18:34;23.20;56.00
32706;DHT22;19094;50.972;3.538;2023-07-13T08:21:04;23.20;55.40
32706;DHT22;19094;50.972;3.538;2023-07-13T08:23:30;23.40;54.90
32706;DHT22;19094;50.972;3.538;2023-07-13T08:25:56;23.20;55.20
32706;DHT22;19094;50.972;3.538;2023-07-13T08:28:22;23.20;55.60
32706;DHT22;19094;50.972;3.538;2023-07-13T08:30:48;23.40;55.30
32706;DHT22;19094;50.972;3.538;2023-07-13T08:33:23;23.40;55.00
32706;DHT22;19094;50.972;3.538;2023-07-13T08:35:51;23.40;55.10
32706;DHT22;19094;50.972;3.538;2023-07-13T08:38:17;23.50;54.60
32706;DHT22;19094;50.972;3.538;2023-07-13T08:40:45;23.50;54.60
32706;DHT22;19094;50.972;3.538;2023-07-13T08:43:17;23.50;54.70
32706;DHT22;19094;50.972;3.538;2023-07-13T08:45:48;23.50;54.50
32706;DHT22;19094;50.972;3.538;2023-07-13T08:51:01;23.50;54.50
32706;DHT22;19094;50.972;3.538;2023-07-13T08:53:40;23.60;54.30
32706;DHT22;19094;50.972;3.538;2023-07-13T08:56:18;23.80;53.90
32706;DHT22;19094;50.972;3.538;2023-07-13T08:58:47;23.80;53.60
32706;DHT22;19094;50.972;3.538;2023-07-13T09:01:20;23.90;53.60
32706;DHT22;19094;50.972;3.538;2023-07-13T09:04:28;23.90;53.30
32706;DHT22;19094;50.972;3.538;2023-07-13T09:12:31;24.00;52.80
32706;DHT22;19094;50.972;3.538;2023-07-13T09:14:59;24.10;53.10
32706;DHT22;19094;50.972;3.538;2023-07-13T09:17:31;24.20;52.80
32706;DHT22;19094;50.972;3.538;2023-07-13T09:22:48;24.30;52.20
32706;DHT22;19094;50.972;3.538;2023-07-13T09:25:51;24.30;52.20
32706;DHT22;19094;50.972;3.538;2023-07-13T09:28:26;24.30;52.20
32706;DHT22;19094;50.972;3.538;2023-07-13T09:33:28;24.30;51.90
32706;DHT22;19094;50.972;3.538;2023-07-13T09:35:57;24.30;52.10
32706;DHT22;19094;50.972;3.538;2023-07-13T09:38:27;24.40;52.00
32706;DHT22;19094;50.972;3.538;2023-07-13T09:41:09;24.50;51.40
32706;DHT22;19094;50.972;3.538;2023-07-13T09:43:36;24.50;51.40
32706;DHT22;19094;50.972;3.538;2023-07-13T09:46:02;24.60;51.20
32706;DHT22;19094;50.972;3.538;2023-07-13T09:48:35;24.60;51.10
32706;DHT22;19094;50.972;3.538;2023-07-13T09:51:14;24.60;51.20
32706;DHT22;19094;50.972;3.538;2023-07-13T09:53:43;24.70;50.80
32706;DHT22;19094;50.972;3.538;2023-07-13T09:56:20;24.70;51.40
32706;DHT22;19094;50.972;3.538;2023-07-13T09:58:45;24.80;50.30
32706;DHT22;19094;50.972;3.538;2023-07-13T10:01:11;24.80;50.00
32706;DHT22;19094;50.972;3.538;2023-07-13T10:03:38;24.80;49.60
32706;DHT22;19094;50.972;3.538;2023-07-13T10:06:17;24.80;49.90
32706;DHT22;19094;50.972;3.538;2023-07-13T10:08:48;24.90;49.70
32706;DHT22;19094;50.972;3.538;2023-07-13T10:11:21;25.00;49.50
32706;DHT22;19094;50.972;3.538;2023-07-13T10:14:09;25.00;49.20
32706;DHT22;19094;50.972;3.538;2023-07-13T10:16:36;25.00;49.70
32706;DHT22;19094;50.972;3.538;2023-07-13T10:19:07;25.00;49.50
32706;DHT22;19094;50.972;3.538;2023-07-13T10:21:43;25.10;49.40
32706;DHT22;19094;50.972;3.538;2023-07-13T10:24:24;25.10;49.30
32706;DHT22;19094;50.972;3.538;2023-07-13T10:27:01;25.10;48.90
32706;DHT22;19094;50.972;3.538;2023-07-13T10:29:48;25.10;48.70
32706;DHT22;19094;50.972;3.538;2023-07-13T10:32:15;25.10;48.60
32706;DHT22;19094;50.972;3.538;2023-07-13T10:34:44;25.10;48.50
32706;DHT22;19094;50.972;3.538;2023-07-13T10:37:21;25.20;48.70
32706;DHT22;19094;50.972;3.538;2023-07-13T10:39:49;25.10;48.50
32706;DHT22;19094;50.972;3.538;2023-07-13T10:42:32;25.10;50.50
32706;DHT22;19094;50.972;3.538;2023-07-13T10:44:59;25.00;51.80
32706;DHT22;19094;50.972;3.538;2023-07-13T10:47:25;24.90;51.80
32706;DHT22;19094;50.972;3.538;2023-07-13T10:49:54;24.80;53.50
32706;DHT22;19094;50.972;3.538;2023-07-13T10:52:47;24.70;53.50
32706;DHT22;19094;50.972;3.538;2023-07-13T10:58:13;24.60;55.20
32706;DHT22;19094;50.972;3.538;2023-07-13T11:01:16;24.40;54.40
32706;DHT22;19094;50.972;3.538;2023-07-13T11:03:54;24.30;54.00
32706;DHT22;19094;50.972;3.538;2023-07-13T11:06:30;24.20;54.70
32706;DHT22;19094;50.972;3.538;2023-07-13T11:11:49;24.20;55.20
32706;DHT22;19094;50.972;3.538;2023-07-13T11:14:37;24.10;55.30
32706;DHT22;19094;50.972;3.538;2023-07-13T11:17:24;24.10;55.10
32706;DHT22;19094;50.972;3.538;2023-07-13T11:19:51;24.10;55.70
32706;DHT22;19094;50.972;3.538;2023-07-13T11:22:23;24.20;55.90
32706;DHT22;19094;50.972;3.538;2023-07-13T11:25:00;24.20;56.50
32706;DHT22;19094;50.972;3.538;2023-07-13T11:30:13;24.20;57.50
32706;DHT22;19094;50.972;3.538;2023-07-13T11:32:44;24.30;57.10
32706;DHT22;19094;50.972;3.538;2023-07-13T11:35:16;24.30;57.00
32706;DHT22;19094;50.972;3.538;2023-07-13T11:37:42;24.40;56.50
32706;DHT22;19094;50.972;3.538;2023-07-13T11:40:16;24.40;55.70
32706;DHT22;19094;50.972;3.538;2023-07-13T11:42:42;24.50;56.50
32706;DHT22;19094;50.972;3.538;2023-07-13T11:45:21;24.50;55.30
32706;DHT22;19094;50.972;3.538;2023-07-13T11:47:50;24.60;54.90
32706;DHT22;19094;50.972;3.538;2023-07-13T11:50:21;24.70;54.60
32706;DHT22;19094;50.972;3.538;2023-07-13T11:52:48;24.80;54.20
32706;DHT22;19094;50.972;3.538;2023-07-13T11:55:20;24.80;53.80
32706;DHT22;19094;50.972;3.538;2023-07-13T11:57:58;24.90;53.80
32706;DHT22;19094;50.972;3.538;2023-07-13T12:00:29;25.00;53.30
32706;DHT22;19094;50.972;3.538;2023-07-13T12:02:57;25.00;53.10
32706;DHT22;19094;50.972;3.538;2023-07-13T12:05:25;25.00;52.90
32706;DHT22;19094;50.972;3.538;2023-07-13T12:07:51;25.10;52.50
32706;DHT22;19094;50.972;3.538;2023-07-13T12:10:28;25.00;52.30
32706;DHT22;19094;50.972;3.538;2023-07-13T12:13:03;25.00;52.80
32706;DHT22;19094;50.972;3.538;2023-07-13T12:15:49;25.10;52.70
32706;DHT22;19094;50.972;3.538;2023-07-13T12:18:22;25.10;53.60
32706;DHT22;19094;50.972;3.538;2023-07-13T12:20:50;25.10;52.80
32706;DHT22;19094;50.972;3.538;2023-07-13T12:25:56;25.20;52.10
32706;DHT22;19094;50.972;3.538;2023-07-13T12:28:31;25.30;51.80
32706;DHT22;19094;50.972;3.538;2023-07-13T12:31:01;25.30;51.80
32706;DHT22;19094;50.972;3.538;2023-07-13T12:33:29;25.40;52.10
32706;DHT22;19094;50.972;3.538;2023-07-13T12:35:55;25.40;51.60
32706;DHT22;19094;50.972;3.538;2023-07-13T12:38:21;25.40;51.60
32706;DHT22;19094;50.972;3.538;2023-07-13T12:40:50;25.40;51.40
32706;DHT22;19094;50.972;3.538;2023-07-13T12:43:17;25.40;51.10
32706;DHT22;19094;50.972;3.538;2023-07-13T12:46:18;25.30;50.60
32706;DHT22;19094;50.972;3.538;2023-07-13T12:48:49;25.40;49.70
32706;DHT22;19094;50.972;3.538;2023-07-13T12:51:15;25.40;50.00
32706;DHT22;19094;50.972;3.538;2023-07-13T12:53:46;25.40;50.10
32706;DHT22;19094;50.972;3.538;2023-07-13T12:56:24;25.40;49.50
32706;DHT22;19094;50.972;3.538;2023-07-13T12:58:56;25.40;49.00
32706;DHT22;19094;50.972;3.538;2023-07-13T13:01:22;25.40;48.80
32706;DHT22;19094;50.972;3.538;2023-07-13T13:03:53;25.40;49.30
32706;DHT22;19094;50.972;3.538;2023-07-13T13:08:52;25.50;48.80
32706;DHT22;19094;50.972;3.538;2023-07-13T13:11:18;25.50;48.80
32706;DHT22;19094;50.972;3.538;2023-07-13T13:13:45;25.60;48.40
32706;DHT22;19094;50.972;3.538;2023-07-13T13:18:53;25.60;47.30
32706;DHT22;19094;50.972;3.538;2023-07-13T13:21:19;25.70;48.60
32706;DHT22;19094;50.972;3.538;2023-07-13T13:23:46;25.80;47.80
32706;DHT22;19094;50.972;3.538;2023-07-13T13:26:14;25.80;47.30
32706;DHT22;19094;50.972;3.538;2023-07-13T13:28:43;25.90;46.80
32706;DHT22;19094;50.972;3.538;2023-07-13T13:31:10;26.00;47.50
32706;DHT22;19094;50.972;3.538;2023-07-13T13:33:40;26.00;47.00
32706;DHT22;19094;50.972;3.538;2023-07-13T13:36:19;26.10;47.50
32706;DHT22;19094;50.972;3.538;2023-07-13T13:38:45;26.10;46.60
32706;DHT22;19094;50.972;3.538;2023-07-13T13:41:12;26.10;46.50
32706;DHT22;19094;50.972;3.538;2023-07-13T13:43:39;26.20;45.70
32706;DHT22;19094;50.972;3.538;2023-07-13T13:46:20;26.30;46.20
32706;DHT22;19094;50.972;3.538;2023-07-13T13:48:47;26.30;46.30
32706;DHT22;19094;50.972;3.538;2023-07-13T13:51:20;26.30;46.70
32706;DHT22;19094;50.972;3.538;2023-07-13T13:53:47;26.40;46.50
32706;DHT22;19094;50.972;3.538;2023-07-13T13:56:13;26.40;46.00
32706;DHT22;19094;50.972;3.538;2023-07-13T13:58:39;26.50;46.30
32706;DHT22;19094;50.972;3.538;2023-07-13T14:01:15;26.50;45.90
32706;DHT22;19094;50.972;3.538;2023-07-13T14:03:42;26.60;45.70
32706;DHT22;19094;50.972;3.538;2023-07-13T14:06:12;26.70;45.50
32706;DHT22;19094;50.972;3.538;2023-07-13T14:08:38;26.80;46.00
32706;DHT22;19094;50.972;3.538;2023-07-13T14:11:04;26.90;45.70
32706;DHT22;19094;50.972;3.538;2023-07-13T14:13:37;27.00;45.30
32706;DHT22;19094;50.972;3.538;2023-07-13T14:16:14;27.10;44.80
32706;DHT22;19094;50.972;3.538;2023-07-13T14:18:40;27.20;43.90
32706;DHT22;19094;50.972;3.538;2023-07-13T14:21:16;27.30;44.40
32706;DHT22;19094;50.972;3.538;2023-07-13T14:23:44;27.40;43.40
32706;DHT22;19094;50.972;3.538;2023-07-13T14:26:13;27.50;43.90
32706;DHT22;19094;50.972;3.538;2023-07-13T14:28:47;27.60;43.60
32706;DHT22;19094;50.972;3.538;2023-07-13T14:31:15;27.60;43.90
32706;DHT22;19094;50.972;3.538;2023-07-13T14:33:41;27.70;42.30
32706;DHT22;19094;50.972;3.538;2023-07-13T14:38:46;27.80;41.30
32706;DHT22;19094;50.972;3.538;2023-07-13T14:41:12;27.80;42.40
32706;DHT22;19094;50.972;3.538;2023-07-13T14:43:37;27.70;42.00
32706;DHT22;19094;50.972;3.538;2023-07-13T14:46:03;27.70;43.80
32706;DHT22;19094;50.972;3.538;2023-07-13T14:48:29;27.70;43.20
32706;DHT22;19094;50.972;3.538;2023-07-13T14:50:57;27.70;43.30
32706;DHT22;19094;50.972;3.538;2023-07-13T14:53:25;27.60;43.60
32706;DHT22;19094;50.972;3.538;2023-07-13T14:55:53;27.60;43.30
32706;DHT22;19094;50.972;3.538;2023-07-13T14:58:19;27.60;43.00
32706;DHT22;19094;50.972;3.538;2023-07-13T15:00:44;27.60;43.00
32706;DHT22;19094;50.972;3.538;2023-07-13T15:03:20;27.70;42.70
32706;DHT22;19094;50.972;3.538;2023-07-13T15:05:50;27.70;42.50
32706;DHT22;19094;50.972;3.538;2023-07-13T15:08:16;27.70;43.50
32706;DHT22;19094;50.972;3.538;2023-07-13T15:10:42;27.70;42.40
32706;DHT22;19094;50.972;3.538;2023-07-13T15:13:18;27.80;42.70
32706;DHT22;19094;50.972;3.538;2023-07-13T15:15:46;27.80;42.10
32706;DHT22;19094;50.972;3.538;2023-07-13T15:18:14;27.80;42.40
32706;DHT22;19094;50.972;3.538;2023-07-13T15:20:43;27.80;43.50
32706;DHT22;19094;50.972;3.538;2023-07-13T15:23:11;27.80;42.90
32706;DHT22;19094;50.972;3.538;2023-07-13T15:25:37;27.90;42.10
32706;DHT22;19094;50.972;3.538;2023-07-13T15:28:03;28.00;41.80
32706;DHT22;19094;50.972;3.538;2023-07-13T15:30:33;28.00;41.20
32706;DHT22;19094;50.972;3.538;2023-07-13T15:33:05;28.10;41.30
32706;DHT22;19094;50.972;3.538;2023-07-13T15:35:35;28.10;40.90
32706;DHT22;19094;50.972;3.538;2023-07-13T15:38:00;28.20;41.70
32706;DHT22;19094;50.972;3.538;2023-07-13T15:40:28;28.20;41.30
32706;DHT22;19094;50.972;3.538;2023-07-13T15:42:53;28.20;41.30
32706;DHT22;19094;50.972;3.538;2023-07-13T15:45:21;28.20;41.00
32706;DHT22;19094;50.972;3.538;2023-07-13T15:47:48;28.20;41.50
32706;DHT22;19094;50.972;3.538;2023-07-13T15:50:16;28.20;41.40
32706;DHT22;19094;50.972;3.538;2023-07-13T15:52:44;28.30;41.60
32706;DHT22;19094;50.972;3.538;2023-07-13T15:55:13;28.30;40.60
32706;DHT22;19094;50.972;3.538;2023-07-13T15:57:43;28.40;40.50
32706;DHT22;19094;50.972;3.538;2023-07-13T16:00:26;28.50;39.50
32706;DHT22;19094;50.972;3.538;2023-07-13T16:02:52;28.50;40.30
32706;DHT22;19094;50.972;3.538;2023-07-13T16:05:20;28.60;41.40
32706;DHT22;19094;50.972;3.538;2023-07-13T16:07:48;28.60;40.30
32706;DHT22;19094;50.972;3.538;2023-07-13T16:10:36;28.60;40.10
32706;DHT22;19094;50.972;3.538;2023-07-13T16:13:13;28.60;39.90
32706;DHT22;19094;50.972;3.538;2023-07-13T16:15:39;28.70;39.80